Time;durP1;ratioP1;P1;durP2;ratioP2;P2;SDS_P1;SDS_P2;PMS_P1;PMS_P2;Temp;Humidity;BMP_temperature;BMP_pressure;BME280_temperature;BME280_humidity;BME280_pressure;Samples;Min_cycle;Max_cycle;Signal;HPM_P1;HPM_P2
2023/01/30 00:00:59;;;;;;;;;;;7.00;99.90;;;;;;4902780;28;20620;-87
2023/01/30 00:09:36;;;;;;;;;;;7.40;99.90;;;;;;5209792;22;19974;-82
2023/01/30 00:12:02;;;;;;;;;;;7.40;99.90;;;;;;5055339;28;19952;-73
2023/01/30 00:14:27;;;;;;;;;;;7.50;99.90;;;;;;5049278;28;19962;-82
2023/01/30 00:16:53;;;;;;;;;;;7.50;99.90;;;;;;5056926;28;19909;-85
2023/01/30 00:19:18;;;;;;;;;;;7.50;99.90;;;;;;5042918;28;19908;-72
2023/01/30 00:21:44;;;;;;;;;;;7.50;99.90;;;;;;5052482;28;20380;-84
2023/01/30 00:24:09;;;;;;;;;;;7.60;99.90;;;;;;5049800;28;20051;-81
2023/01/30 00:26:35;;;;;;;;;;;7.60;99.90;;;;;;5055919;28;19920;-76
2023/01/30 00:29:00;;;;;;;;;;;7.60;99.90;;;;;;5051610;28;20299;-86
2023/01/30 00:31:26;;;;;;;;;;;7.60;99.90;;;;;;5056133;28;19913;-80
2023/01/30 00:33:51;;;;;;;;;;;7.60;99.90;;;;;;5055066;28;19919;-77
2023/01/30 00:36:17;;;;;;;;;;;7.60;99.90;;;;;;5052223;28;20338;-89
2023/01/30 00:38:42;;;;;;;;;;;7.60;99.90;;;;;;5046539;28;20012;-76
2023/01/30 00:41:09;;;;;;;;;;;7.60;99.90;;;;;;5045843;28;19915;-73
2023/01/30 00:49:12;;;;;;;;;;;7.60;99.90;;;;;;5049115;28;19959;-83
2023/01/30 00:51:37;;;;;;;;;;;7.60;99.90;;;;;;5053081;28;20247;-81
2023/01/30 00:54:03;;;;;;;;;;;7.60;99.90;;;;;;5055072;28;20304;-77
2023/01/30 00:56:28;;;;;;;;;;;7.60;99.90;;;;;;5053386;28;19923;-79
2023/01/30 00:58:54;;;;;;;;;;;7.50;99.90;;;;;;5052154;28;20293;-76
2023/01/30 01:01:19;;;;;;;;;;;7.50;99.90;;;;;;5049749;28;19979;-74
2023/01/30 01:03:45;;;;;;;;;;;7.50;99.90;;;;;;5046785;28;19935;-78
2023/01/30 01:06:10;;;;;;;;;;;7.40;99.90;;;;;;5053061;28;19908;-75
2023/01/30 01:08:39;;;;;;;;;;;7.40;99.90;;;;;;5060846;28;19920;-71
2023/01/30 01:11:04;;;;;;;;;;;7.40;99.90;;;;;;5066165;28;19920;-71
2023/01/30 01:13:30;;;;;;;;;;;7.40;99.90;;;;;;5075793;28;20246;-69
2023/01/30 01:15:55;;;;;;;;;;;7.50;99.90;;;;;;5075331;28;20307;-71
2023/01/30 01:18:21;;;;;;;;;;;7.50;99.90;;;;;;5067802;28;19920;-71
2023/01/30 01:20:47;;;;;;;;;;;7.50;99.90;;;;;;5072570;28;19909;-81
2023/01/30 01:23:12;;;;;;;;;;;7.50;99.90;;;;;;5070594;28;19912;-71
2023/01/30 01:25:38;;;;;;;;;;;7.50;99.90;;;;;;5073012;28;19997;-81
2023/01/30 01:28:03;;;;;;;;;;;7.50;99.90;;;;;;5070834;28;19970;-71
2023/01/30 01:30:29;;;;;;;;;;;7.50;99.90;;;;;;5072162;28;19955;-73
2023/01/30 01:32:55;;;;;;;;;;;7.50;99.90;;;;;;5072924;28;20368;-73
2023/01/30 01:35:21;;;;;;;;;;;7.50;99.90;;;;;;5073278;28;19912;-89
2023/01/30 01:37:46;;;;;;;;;;;7.50;99.90;;;;;;5070546;28;19935;-72
2023/01/30 01:43:01;;;;;;;;;;;7.50;99.90;;;;;;5070358;28;19916;-83
2023/01/30 01:45:28;;;;;;;;;;;7.50;99.90;;;;;;5064906;28;19909;-70
2023/01/30 01:47:59;;;;;;;;;;;7.40;99.90;;;;;;5067329;28;19912;-70
2023/01/30 01:50:27;;;;;;;;;;;7.40;99.90;;;;;;5044819;28;20294;-77
2023/01/30 01:52:55;;;;;;;;;;;7.40;99.90;;;;;;5049894;28;20082;-73
2023/01/30 01:55:21;;;;;;;;;;;7.40;99.90;;;;;;5072330;28;19943;-73
2023/01/30 01:57:52;;;;;;;;;;;7.40;99.90;;;;;;5075076;28;19916;-71
2023/01/30 02:00:19;;;;;;;;;;;7.40;99.90;;;;;;5066734;28;19908;-75
2023/01/30 02:02:48;;;;;;;;;;;7.30;99.90;;;;;;5071317;28;19916;-77
2023/01/30 02:05:14;;;;;;;;;;;7.30;99.90;;;;;;5072083;28;20218;-82
2023/01/30 02:08:00;;;;;;;;;;;7.30;99.90;;;;;;5063513;28;19983;-71
2023/01/30 02:10:30;;;;;;;;;;;7.30;99.90;;;;;;5068862;28;19980;-75
2023/01/30 02:12:55;;;;;;;;;;;7.30;99.90;;;;;;5071948;28;19939;-70
2023/01/30 02:15:21;;;;;;;;;;;7.20;99.90;;;;;;5063180;28;19931;-71
2023/01/30 02:17:47;;;;;;;;;;;7.20;99.90;;;;;;5049173;28;19912;-84
2023/01/30 02:20:18;;;;;;;;;;;7.20;99.90;;;;;;5074464;28;19952;-74
2023/01/30 02:23:02;;;;;;;;;;;7.20;99.90;;;;;;5069370;28;19914;-79
2023/01/30 02:25:33;;;;;;;;;;;7.20;99.90;;;;;;5070222;28;19988;-76
2023/01/30 02:28:11;;;;;;;;;;;7.20;99.90;;;;;;5073684;28;20242;-83
2023/01/30 02:30:48;;;;;;;;;;;7.20;99.90;;;;;;5073164;28;19958;-84
2023/01/30 02:33:32;;;;;;;;;;;7.20;99.90;;;;;;5056015;28;19908;-70
2023/01/30 02:36:16;;;;;;;;;;;7.20;99.90;;;;;;5048116;28;19920;-84
2023/01/30 02:38:48;;;;;;;;;;;7.20;99.90;;;;;;5051473;28;19909;-78
2023/01/30 02:41:19;;;;;;;;;;;7.20;99.90;;;;;;5075189;28;19908;-73
2023/01/30 02:43:56;;;;;;;;;;;7.20;99.90;;;;;;5053675;28;19912;-74
2023/01/30 02:46:45;;;;;;;;;;;7.20;99.90;;;;;;5073405;28;19912;-70
2023/01/30 02:49:17;;;;;;;;;;;7.20;99.90;;;;;;5037173;28;19944;-75
2023/01/30 02:51:45;;;;;;;;;;;7.30;99.90;;;;;;5068939;28;19908;-79
2023/01/30 02:54:11;;;;;;;;;;;7.30;99.90;;;;;;5067709;28;19930;-84
2023/01/30 02:57:03;;;;;;;;;;;7.30;99.90;;;;;;5070508;28;19912;-73
2023/01/30 02:59:33;;;;;;;;;;;7.40;99.90;;;;;;5062177;28;19916;-89
2023/01/30 03:02:17;;;;;;;;;;;7.40;99.90;;;;;;5068729;28;19913;-85
2023/01/30 03:04:50;;;;;;;;;;;7.40;99.90;;;;;;5066177;28;20184;-82
2023/01/30 03:07:31;;;;;;;;;;;7.40;99.90;;;;;;5072951;28;19935;-75
2023/01/30 03:10:04;;;;;;;;;;;7.50;99.90;;;;;;5072324;28;20015;-86
2023/01/30 03:12:42;;;;;;;;;;;7.50;99.90;;;;;;5056442;28;19918;-82
2023/01/30 03:15:11;;;;;;;;;;;7.50;99.90;;;;;;5065807;28;19915;-81
2023/01/30 03:17:38;;;;;;;;;;;7.60;99.90;;;;;;5070821;28;19912;-82
2023/01/30 03:20:04;;;;;;;;;;;7.60;99.90;;;;;;5071004;28;19916;-88
2023/01/30 03:22:29;;;;;;;;;;;7.60;99.90;;;;;;5070465;28;19908;-84
2023/01/30 03:24:55;;;;;;;;;;;7.60;99.90;;;;;;5074062;28;19908;-84
2023/01/30 03:27:21;;;;;;;;;;;7.60;99.90;;;;;;5075115;28;19908;-85
2023/01/30 03:29:46;;;;;;;;;;;7.70;99.90;;;;;;5077952;28;19916;-84
2023/01/30 03:32:12;;;;;;;;;;;7.70;99.90;;;;;;5068489;28;20658;-76
2023/01/30 03:34:37;;;;;;;;;;;7.70;99.90;;;;;;5073024;28;19908;-82
2023/01/30 03:37:03;;;;;;;;;;;7.80;99.90;;;;;;5077606;28;19952;-87
2023/01/30 03:39:29;;;;;;;;;;;7.70;99.90;;;;;;5078009;28;19916;-74
2023/01/30 03:41:55;;;;;;;;;;;7.80;99.90;;;;;;5057368;28;19912;-74
2023/01/30 03:44:20;;;;;;;;;;;7.80;99.90;;;;;;5074150;28;19961;-82
2023/01/30 03:46:46;;;;;;;;;;;7.80;99.90;;;;;;5076581;28;20218;-85
2023/01/30 03:49:11;;;;;;;;;;;7.80;99.90;;;;;;5053026;28;19919;-74
2023/01/30 03:51:37;;;;;;;;;;;7.80;99.90;;;;;;5072523;28;19912;-81
2023/01/30 03:54:02;;;;;;;;;;;7.80;99.90;;;;;;5066350;28;19908;-91
2023/01/30 03:56:29;;;;;;;;;;;7.90;99.90;;;;;;5071028;28;20265;-80
2023/01/30 03:58:54;;;;;;;;;;;7.90;99.90;;;;;;5050288;28;19912;-82
2023/01/30 04:01:20;;;;;;;;;;;7.90;99.90;;;;;;5066382;28;19913;-73
2023/01/30 04:03:45;;;;;;;;;;;7.90;99.90;;;;;;5066512;28;20226;-77
2023/01/30 04:06:11;;;;;;;;;;;7.90;99.90;;;;;;5075426;28;20334;-75
2023/01/30 04:08:36;;;;;;;;;;;8.00;99.90;;;;;;5073369;28;19920;-83
2023/01/30 04:11:02;;;;;;;;;;;8.00;99.90;;;;;;5076482;28;19999;-74
2023/01/30 04:13:27;;;;;;;;;;;8.00;99.90;;;;;;5071175;28;19999;-78
2023/01/30 04:16:12;;;;;;;;;;;8.00;99.90;;;;;;5042966;28;19912;-89
2023/01/30 04:18:37;;;;;;;;;;;7.90;99.90;;;;;;5071068;28;19931;-70
2023/01/30 04:21:03;;;;;;;;;;;7.90;99.90;;;;;;5073756;28;20451;-88
2023/01/30 04:23:28;;;;;;;;;;;7.90;99.90;;;;;;5055783;28;19915;-82
2023/01/30 04:25:54;;;;;;;;;;;7.90;99.90;;;;;;5075223;28;20285;-80
2023/01/30 04:28:19;;;;;;;;;;;8.00;99.90;;;;;;5074498;28;19913;-83
2023/01/30 04:30:45;;;;;;;;;;;8.00;99.90;;;;;;5074256;28;19923;-87
2023/01/30 04:33:10;;;;;;;;;;;8.00;99.90;;;;;;5076630;28;19915;-83
2023/01/30 04:35:36;;;;;;;;;;;8.00;99.90;;;;;;5058467;28;19931;-77
2023/01/30 04:38:01;;;;;;;;;;;8.00;99.90;;;;;;5076452;28;20291;-89
2023/01/30 04:40:28;;;;;;;;;;;8.00;99.90;;;;;;5074567;28;19916;-88
2023/01/30 04:42:54;;;;;;;;;;;8.00;99.90;;;;;;5070100;28;19908;-78
2023/01/30 04:45:19;;;;;;;;;;;8.00;99.90;;;;;;5075069;28;19931;-76
2023/01/30 04:47:45;;;;;;;;;;;8.00;99.90;;;;;;5074488;28;20318;-82
2023/01/30 04:50:10;;;;;;;;;;;8.00;99.90;;;;;;5075494;28;19913;-87
2023/01/30 04:52:36;;;;;;;;;;;7.90;99.90;;;;;;5072350;28;19912;-84
2023/01/30 04:55:01;;;;;;;;;;;7.90;99.90;;;;;;5056361;28;19974;-79
2023/01/30 04:57:27;;;;;;;;;;;7.90;99.90;;;;;;5073657;28;20314;-85
2023/01/30 04:59:52;;;;;;;;;;;7.90;99.90;;;;;;5063320;28;19908;-83
2023/01/30 05:02:18;;;;;;;;;;;7.90;99.90;;;;;;5072026;28;19966;-83
2023/01/30 05:04:44;;;;;;;;;;;7.90;99.90;;;;;;5074080;28;19944;-82
2023/01/30 05:07:10;;;;;;;;;;;7.80;99.90;;;;;;5056702;28;20015;-85
2023/01/30 05:09:36;;;;;;;;;;;7.80;99.90;;;;;;5049438;28;20031;-77
2023/01/30 05:12:01;;;;;;;;;;;7.70;99.90;;;;;;5074196;28;20010;-78
2023/01/30 05:14:27;;;;;;;;;;;7.70;99.90;;;;;;5076198;28;19904;-83
2023/01/30 05:16:52;;;;;;;;;;;7.70;99.90;;;;;;5075028;28;19924;-85
2023/01/30 05:19:18;;;;;;;;;;;7.60;99.90;;;;;;5075865;28;19905;-83
2023/01/30 05:21:43;;;;;;;;;;;7.50;99.90;;;;;;5074466;28;19915;-76
2023/01/30 05:24:09;;;;;;;;;;;7.50;99.90;;;;;;5073733;28;19938;-86
2023/01/30 05:26:34;;;;;;;;;;;7.50;99.90;;;;;;5074635;28;19938;-81
2023/01/30 05:29:01;;;;;;;;;;;7.30;99.90;;;;;;5068631;28;19917;-85
2023/01/30 05:31:27;;;;;;;;;;;7.30;99.90;;;;;;5046028;28;19924;-74
2023/01/30 05:33:52;;;;;;;;;;;7.20;99.90;;;;;;5071325;28;19908;-80
2023/01/30 05:36:19;;;;;;;;;;;7.20;99.90;;;;;;5072754;28;19963;-78
2023/01/30 05:38:44;;;;;;;;;;;7.20;99.90;;;;;;5056101;28;19949;-84
2023/01/30 05:41:11;;;;;;;;;;;7.10;99.90;;;;;;5075546;28;19912;-81
2023/01/30 05:43:37;;;;;;;;;;;7.00;99.90;;;;;;5056976;28;19916;-79
2023/01/30 05:46:03;;;;;;;;;;;6.90;99.90;;;;;;5075052;28;20283;-83
2023/01/30 05:48:30;;;;;;;;;;;6.80;99.90;;;;;;5064934;28;19948;-81
2023/01/30 05:50:56;;;;;;;;;;;6.90;99.90;;;;;;5072002;28;20326;-84
2023/01/30 05:53:22;;;;;;;;;;;6.90;99.90;;;;;;5068285;28;20287;-70
2023/01/30 05:55:58;;;;;;;;;;;6.90;99.90;;;;;;5075065;28;19908;-84
2023/01/30 05:58:24;;;;;;;;;;;6.90;99.90;;;;;;5072864;28;19916;-86
2023/01/30 06:00:50;;;;;;;;;;;6.80;99.90;;;;;;5072126;28;20237;-84
2023/01/30 06:03:16;;;;;;;;;;;6.90;99.90;;;;;;5052017;28;19908;-81
2023/01/30 06:05:41;;;;;;;;;;;6.90;99.90;;;;;;5063263;28;19992;-75
2023/01/30 06:08:07;;;;;;;;;;;6.80;99.90;;;;;;5073352;28;20018;-79
2023/01/30 06:10:35;;;;;;;;;;;6.80;99.90;;;;;;5060308;28;19908;-84
2023/01/30 06:13:01;;;;;;;;;;;6.80;99.90;;;;;;5073843;28;20238;-82
2023/01/30 06:15:27;;;;;;;;;;;6.80;99.90;;;;;;5074634;28;19923;-87
2023/01/30 06:17:52;;;;;;;;;;;6.70;99.90;;;;;;5074122;28;20295;-86
2023/01/30 06:20:18;;;;;;;;;;;6.70;99.90;;;;;;5028831;28;20351;-83
2023/01/30 06:22:43;;;;;;;;;;;6.60;99.90;;;;;;5074187;28;20368;-76
2023/01/30 06:25:09;;;;;;;;;;;6.60;99.90;;;;;;5074190;28;20014;-84
2023/01/30 06:27:35;;;;;;;;;;;6.60;99.90;;;;;;5072063;28;19951;-82
2023/01/30 06:30:00;;;;;;;;;;;6.60;99.90;;;;;;5055379;28;19908;-81
2023/01/30 06:32:26;;;;;;;;;;;6.60;99.90;;;;;;5068241;28;19988;-82
2023/01/30 06:34:51;;;;;;;;;;;6.50;99.90;;;;;;5065469;28;20271;-82
2023/01/30 06:37:17;;;;;;;;;;;6.60;99.90;;;;;;5063517;28;19908;-78
2023/01/30 06:39:42;;;;;;;;;;;6.50;99.90;;;;;;5047678;28;19912;-80
2023/01/30 06:42:08;;;;;;;;;;;6.50;99.90;;;;;;5072529;28;19931;-90
2023/01/30 06:44:33;;;;;;;;;;;6.50;99.90;;;;;;5067534;28;20291;-86
2023/01/30 06:46:59;;;;;;;;;;;6.50;99.90;;;;;;5050104;28;19912;-78
2023/01/30 06:49:24;;;;;;;;;;;6.50;99.90;;;;;;5061000;28;19916;-86
2023/01/30 06:51:50;;;;;;;;;;;6.40;99.90;;;;;;5055418;28;19912;-83
2023/01/30 06:54:15;;;;;;;;;;;6.40;99.90;;;;;;5071066;28;20778;-80
2023/01/30 06:56:41;;;;;;;;;;;6.50;99.90;;;;;;5054209;28;19915;-83
2023/01/30 06:59:07;;;;;;;;;;;6.50;99.90;;;;;;5070118;28;19915;-82
2023/01/30 07:01:32;;;;;;;;;;;6.40;99.90;;;;;;5069120;28;19991;-71
2023/01/30 07:03:58;;;;;;;;;;;6.50;99.90;;;;;;5067608;28;19912;-91
2023/01/30 07:06:25;;;;;;;;;;;6.40;99.90;;;;;;5072304;28;19916;-72
2023/01/30 07:08:50;;;;;;;;;;;6.30;99.90;;;;;;5074760;28;19966;-81
2023/01/30 07:11:16;;;;;;;;;;;6.30;99.90;;;;;;5068827;28;19965;-71
2023/01/30 07:13:41;;;;;;;;;;;6.40;99.90;;;;;;5073104;28;19919;-85
2023/01/30 07:16:07;;;;;;;;;;;6.30;99.90;;;;;;5075781;28;20300;-86
2023/01/30 07:18:32;;;;;;;;;;;6.30;99.90;;;;;;5074516;28;19908;-82
2023/01/30 07:20:58;;;;;;;;;;;6.30;99.90;;;;;;5065266;28;19912;-80
2023/01/30 07:23:23;;;;;;;;;;;6.20;99.90;;;;;;5064253;28;19908;-81
2023/01/30 07:25:49;;;;;;;;;;;6.30;99.90;;;;;;5059108;28;19908;-85
2023/01/30 07:28:14;;;;;;;;;;;6.30;99.90;;;;;;5055692;28;20334;-81
2023/01/30 07:30:40;;;;;;;;;;;6.30;99.90;;;;;;5076086;28;19908;-85
2023/01/30 07:33:06;;;;;;;;;;;6.30;99.90;;;;;;5058490;28;20299;-83
2023/01/30 07:35:32;;;;;;;;;;;6.30;99.90;;;;;;5073417;28;20316;-70
2023/01/30 07:37:58;;;;;;;;;;;6.30;99.90;;;;;;5078336;28;19909;-75
2023/01/30 07:40:24;;;;;;;;;;;6.30;99.90;;;;;;5068413;28;19939;-74
2023/01/30 07:42:56;;;;;;;;;;;6.30;99.90;;;;;;5071491;28;19923;-70
2023/01/30 07:45:22;;;;;;;;;;;6.40;99.90;;;;;;5067514;28;19952;-68
2023/01/30 07:47:47;;;;;;;;;;;6.40;99.90;;;;;;5068238;28;19940;-68
2023/01/30 07:50:13;;;;;;;;;;;6.40;99.90;;;;;;5068872;28;19966;-86
2023/01/30 07:52:38;;;;;;;;;;;6.40;99.90;;;;;;5068934;28;19904;-81
2023/01/30 07:55:04;;;;;;;;;;;6.50;99.90;;;;;;5056404;28;19934;-88
2023/01/30 07:57:29;;;;;;;;;;;6.50;99.90;;;;;;5049588;28;19959;-81
2023/01/30 07:59:55;;;;;;;;;;;6.50;99.90;;;;;;5069092;28;20037;-69
2023/01/30 08:02:20;;;;;;;;;;;6.50;99.90;;;;;;5074150;28;19909;-82
2023/01/30 08:04:46;;;;;;;;;;;6.60;99.90;;;;;;5064286;28;19915;-68
2023/01/30 08:07:11;;;;;;;;;;;6.60;99.90;;;;;;5064295;28;19916;-85
2023/01/30 08:09:37;;;;;;;;;;;6.70;99.90;;;;;;5055675;28;19948;-69
2023/01/30 08:12:03;;;;;;;;;;;6.70;99.90;;;;;;5076568;28;19917;-67
2023/01/30 08:14:28;;;;;;;;;;;6.70;99.90;;;;;;5072919;28;19944;-67
2023/01/30 08:16:55;;;;;;;;;;;6.70;99.90;;;;;;5074829;28;19948;-81
2023/01/30 08:19:21;;;;;;;;;;;6.70;99.90;;;;;;5054905;28;19963;-82
2023/01/30 08:21:46;;;;;;;;;;;6.70;99.90;;;;;;5063861;28;20303;-84
2023/01/30 08:24:12;;;;;;;;;;;6.80;99.90;;;;;;5065416;28;20291;-82
2023/01/30 08:26:37;;;;;;;;;;;6.80;99.90;;;;;;5061726;28;20180;-79
2023/01/30 08:29:03;;;;;;;;;;;6.90;99.90;;;;;;5069951;28;19927;-71
2023/01/30 08:31:29;;;;;;;;;;;6.90;99.90;;;;;;5070604;28;19915;-80
2023/01/30 08:33:54;;;;;;;;;;;6.90;99.90;;;;;;5074649;28;19919;-79
2023/01/30 08:36:20;;;;;;;;;;;6.90;99.90;;;;;;5039190;28;19914;-81
2023/01/30 08:38:45;;;;;;;;;;;6.90;99.90;;;;;;5071884;28;19912;-70
2023/01/30 08:41:11;;;;;;;;;;;7.00;99.90;;;;;;5075157;28;19912;-75
2023/01/30 08:43:36;;;;;;;;;;;7.00;99.90;;;;;;5072528;28;19958;-72
2023/01/30 08:46:02;;;;;;;;;;;7.10;99.90;;;;;;5075949;28;19908;-81
2023/01/30 08:48:28;;;;;;;;;;;7.00;99.90;;;;;;5075655;28;19912;-84
2023/01/30 08:50:54;;;;;;;;;;;7.00;99.90;;;;;;5070743;28;19908;-81
2023/01/30 08:53:19;;;;;;;;;;;7.10;99.90;;;;;;5065110;28;19916;-68
2023/01/30 08:55:49;;;;;;;;;;;7.10;99.90;;;;;;5023915;28;20049;-79
2023/01/30 08:58:15;;;;;;;;;;;7.10;99.90;;;;;;5056809;28;19912;-69
2023/01/30 09:00:43;;;;;;;;;;;7.20;99.90;;;;;;5058632;28;19915;-76
2023/01/30 09:03:09;;;;;;;;;;;7.20;99.90;;;;;;5058811;28;20476;-68
2023/01/30 09:05:35;;;;;;;;;;;7.20;99.90;;;;;;5069924;28;19920;-79
2023/01/30 09:08:00;;;;;;;;;;;7.20;99.90;;;;;;5053223;28;20293;-73
2023/01/30 09:10:26;;;;;;;;;;;7.40;99.90;;;;;;5055628;28;20520;-73
2023/01/30 09:12:51;;;;;;;;;;;7.30;99.90;;;;;;5075361;28;19912;-82
2023/01/30 09:15:17;;;;;;;;;;;7.30;99.90;;;;;;5075828;28;19991;-85
2023/01/30 09:17:43;;;;;;;;;;;7.40;99.90;;;;;;5073102;28;19915;-72
2023/01/30 09:20:09;;;;;;;;;;;7.40;99.90;;;;;;5055002;28;19912;-84
2023/01/30 09:22:35;;;;;;;;;;;7.40;99.90;;;;;;5057526;28;19916;-77
2023/01/30 09:25:01;;;;;;;;;;;7.50;99.90;;;;;;5074487;28;20275;-80
2023/01/30 09:27:26;;;;;;;;;;;7.40;99.90;;;;;;5057462;28;19916;-82
2023/01/30 09:29:52;;;;;;;;;;;7.50;99.90;;;;;;5076456;28;20007;-81
2023/01/30 09:32:17;;;;;;;;;;;7.50;99.90;;;;;;5069768;28;19905;-80
2023/01/30 09:34:43;;;;;;;;;;;7.40;99.90;;;;;;5075466;28;19916;-85
2023/01/30 09:37:08;;;;;;;;;;;7.40;99.90;;;;;;5069247;28;19927;-79
2023/01/30 09:39:34;;;;;;;;;;;7.40;99.90;;;;;;5074624;28;20314;-74
2023/01/30 09:42:13;;;;;;;;;;;7.40;99.90;;;;;;5050623;28;19916;-68
2023/01/30 09:44:45;;;;;;;;;;;7.40;99.90;;;;;;5070523;28;19905;-84
2023/01/30 09:47:25;;;;;;;;;;;7.40;99.90;;;;;;5070711;28;20226;-81
2023/01/30 09:50:10;;;;;;;;;;;7.40;99.90;;;;;;5065979;28;20015;-73
2023/01/30 09:52:55;;;;;;;;;;;7.30;99.90;;;;;;5071408;28;19963;-83
2023/01/30 09:55:48;;;;;;;;;;;7.40;99.90;;;;;;5069348;28;20296;-81
2023/01/30 09:58:19;;;;;;;;;;;7.40;99.90;;;;;;5058994;28;19908;-78
2023/01/30 10:00:48;;;;;;;;;;;7.50;99.90;;;;;;5069813;28;19912;-77
2023/01/30 10:03:15;;;;;;;;;;;7.50;99.90;;;;;;5068737;28;20291;-83
2023/01/30 10:05:59;;;;;;;;;;;7.50;99.90;;;;;;5061745;28;20003;-85
2023/01/30 10:08:39;;;;;;;;;;;7.50;99.90;;;;;;5073491;28;19925;-81
2023/01/30 10:11:12;;;;;;;;;;;7.60;99.90;;;;;;5066979;28;19982;-78
2023/01/30 10:13:56;;;;;;;;;;;7.50;99.90;;;;;;5051989;28;19915;-77
2023/01/30 10:16:21;;;;;;;;;;;7.50;99.90;;;;;;5070032;28;19913;-86
2023/01/30 10:18:47;;;;;;;;;;;7.50;99.90;;;;;;5049089;28;19908;-80
2023/01/30 10:21:15;;;;;;;;;;;7.50;99.90;;;;;;5069600;28;20058;-81
2023/01/30 10:23:43;;;;;;;;;;;7.50;99.90;;;;;;5071890;28;19915;-79
2023/01/30 10:26:10;;;;;;;;;;;7.50;99.90;;;;;;5068566;28;19919;-78
2023/01/30 10:28:41;;;;;;;;;;;7.50;99.90;;;;;;5067935;28;19912;-72
2023/01/30 10:31:12;;;;;;;;;;;7.50;99.90;;;;;;5067747;28;20207;-73
2023/01/30 10:33:58;;;;;;;;;;;7.40;99.90;;;;;;5063688;28;19909;-82
2023/01/30 10:36:26;;;;;;;;;;;7.50;99.90;;;;;;5060737;28;19909;-76
2023/01/30 10:38:53;;;;;;;;;;;7.50;99.90;;;;;;5065370;28;19919;-82
2023/01/30 10:41:28;;;;;;;;;;;7.50;99.90;;;;;;5053806;28;19966;-80
2023/01/30 10:44:12;;;;;;;;;;;7.50;99.90;;;;;;5071705;28;19916;-81
2023/01/30 10:46:47;;;;;;;;;;;7.60;99.90;;;;;;5067483;28;19908;-80
2023/01/30 10:49:28;;;;;;;;;;;7.80;99.90;;;;;;5070168;28;20324;-76
2023/01/30 10:51:56;;;;;;;;;;;8.10;99.90;;;;;;5064084;28;19944;-76
2023/01/30 10:54:40;;;;;;;;;;;8.30;99.90;;;;;;5064049;28;19908;-72
2023/01/30 10:57:14;;;;;;;;;;;8.40;99.90;;;;;;5065593;28;19909;-82
2023/01/30 10:59:45;;;;;;;;;;;8.40;99.90;;;;;;5074018;28;19908;-83
2023/01/30 11:02:17;;;;;;;;;;;8.40;99.90;;;;;;5051962;28;19943;-82
2023/01/30 11:04:47;;;;;;;;;;;8.40;99.90;;;;;;5056164;28;19915;-78
2023/01/30 11:07:12;;;;;;;;;;;8.30;99.90;;;;;;5046429;28;19927;-79
2023/01/30 11:09:39;;;;;;;;;;;8.30;99.90;;;;;;5062339;28;19916;-72
2023/01/30 11:12:05;;;;;;;;;;;8.40;99.90;;;;;;5072020;28;20152;-84
2023/01/30 11:14:48;;;;;;;;;;;8.30;99.90;;;;;;5071703;28;19916;-84
2023/01/30 11:17:15;;;;;;;;;;;8.30;99.90;;;;;;5072370;28;19908;-82
2023/01/30 11:19:40;;;;;;;;;;;8.20;99.90;;;;;;5071961;28;19959;-83
2023/01/30 11:22:06;;;;;;;;;;;8.10;99.90;;;;;;5069373;28;19964;-85
2023/01/30 11:24:37;;;;;;;;;;;8.20;99.90;;;;;;5066347;28;19916;-75
2023/01/30 11:27:10;;;;;;;;;;;8.20;99.90;;;;;;5072471;28;19908;-80
2023/01/30 11:29:37;;;;;;;;;;;8.30;99.90;;;;;;5072997;28;19916;-80
2023/01/30 11:32:05;;;;;;;;;;;8.40;99.90;;;;;;5069964;28;19959;-83
2023/01/30 11:34:31;;;;;;;;;;;8.40;99.90;;;;;;5064588;28;19908;-81
2023/01/30 11:37:15;;;;;;;;;;;8.60;99.90;;;;;;5063839;28;19938;-78
2023/01/30 11:39:47;;;;;;;;;;;8.90;99.90;;;;;;5066665;28;19951;-84
2023/01/30 11:42:12;;;;;;;;;;;9.00;99.90;;;;;;5061709;28;20015;-80
2023/01/30 11:44:39;;;;;;;;;;;8.90;99.90;;;;;;5069548;28;19995;-82
2023/01/30 11:47:09;;;;;;;;;;;8.90;99.90;;;;;;5074538;28;19973;-77
2023/01/30 11:49:42;;;;;;;;;;;8.80;99.90;;;;;;5068316;28;19923;-70
2023/01/30 11:52:08;;;;;;;;;;;8.80;99.90;;;;;;5068217;28;19908;-84
2023/01/30 11:54:36;;;;;;;;;;;8.90;99.90;;;;;;5057875;28;19918;-86
2023/01/30 11:57:04;;;;;;;;;;;8.70;99.90;;;;;;5053785;28;19909;-78
2023/01/30 11:59:36;;;;;;;;;;;8.70;99.90;;;;;;5063691;28;19954;-86
2023/01/30 12:02:22;;;;;;;;;;;8.60;99.90;;;;;;5075766;28;20421;-84
2023/01/30 12:04:52;;;;;;;;;;;8.50;99.90;;;;;;5071260;28;19916;-83
2023/01/30 12:07:25;;;;;;;;;;;8.40;99.90;;;;;;5074070;28;19924;-73
2023/01/30 12:09:53;;;;;;;;;;;8.30;99.90;;;;;;5074351;28;19923;-68
2023/01/30 12:12:33;;;;;;;;;;;8.40;99.90;;;;;;5055528;28;19963;-83
2023/01/30 12:15:10;;;;;;;;;;;8.40;99.90;;;;;;5069439;28;19908;-84
2023/01/30 12:17:43;;;;;;;;;;;8.30;99.90;;;;;;5042468;28;19917;-75
2023/01/30 12:20:29;;;;;;;;;;;8.30;99.90;;;;;;5066700;28;20011;-78
2023/01/30 12:23:07;;;;;;;;;;;8.30;99.90;;;;;;5072144;28;19912;-86
2023/01/30 12:25:51;;;;;;;;;;;8.30;99.90;;;;;;5075135;28;19908;-68
2023/01/30 12:28:24;;;;;;;;;;;8.40;99.90;;;;;;5075909;28;20010;-81
2023/01/30 12:30:58;;;;;;;;;;;8.40;99.90;;;;;;5053179;28;19919;-74
2023/01/30 12:33:27;;;;;;;;;;;8.40;99.90;;;;;;5069683;28;19915;-89
2023/01/30 12:36:15;;;;;;;;;;;8.30;99.90;;;;;;5073980;28;19915;-85
2023/01/30 12:39:00;;;;;;;;;;;8.20;99.90;;;;;;5074903;28;20354;-86
2023/01/30 12:41:28;;;;;;;;;;;8.20;99.90;;;;;;5068720;28;19913;-67
2023/01/30 12:44:00;;;;;;;;;;;8.20;99.90;;;;;;5070246;28;19984;-73
2023/01/30 12:46:25;;;;;;;;;;;8.20;99.90;;;;;;5066264;28;20049;-68
2023/01/30 12:48:59;;;;;;;;;;;8.20;99.90;;;;;;5071247;28;20014;-89
2023/01/30 12:51:39;;;;;;;;;;;8.20;99.90;;;;;;5038777;28;20133;-79
2023/01/30 12:54:23;;;;;;;;;;;8.20;99.90;;;;;;5071839;28;19908;-74
2023/01/30 12:56:48;;;;;;;;;;;8.10;99.90;;;;;;5071540;28;19961;-82
2023/01/30 12:59:20;;;;;;;;;;;8.20;99.90;;;;;;5064394;28;19908;-83
2023/01/30 13:02:24;;;;;;;;;;;8.20;99.90;;;;;;5063730;28;19912;-78
2023/01/30 13:05:05;;;;;;;;;;;8.20;99.90;;;;;;5006803;28;20000;-81
2023/01/30 13:07:36;;;;;;;;;;;8.20;99.90;;;;;;5007733;28;20287;-80
2023/01/30 13:10:08;;;;;;;;;;;8.20;99.90;;;;;;5010384;28;19945;-85
2023/01/30 13:12:49;;;;;;;;;;;8.20;99.90;;;;;;5005909;28;19913;-87
2023/01/30 13:15:21;;;;;;;;;;;8.20;99.90;;;;;;5011637;28;19917;-68
2023/01/30 13:17:49;;;;;;;;;;;8.10;99.90;;;;;;5006623;28;20004;-84
2023/01/30 13:20:15;;;;;;;;;;;8.10;99.90;;;;;;5006773;28;20312;-68
2023/01/30 13:23:16;;;;;;;;;;;8.20;99.90;;;;;;5004784;28;19941;-67
2023/01/30 13:25:41;;;;;;;;;;;8.20;99.90;;;;;;4903414;29;20018;-91
2023/01/30 13:28:15;;;;;;;;;;;8.30;99.90;;;;;;4909124;29;19982;-83
2023/01/30 13:30:42;;;;;;;;;;;8.30;99.90;;;;;;4909257;29;19916;-88
2023/01/30 13:33:10;;;;;;;;;;;8.30;99.90;;;;;;4911419;29;19911;-80
2023/01/30 13:36:11;;;;;;;;;;;8.40;99.90;;;;;;4938804;28;19933;-81
2023/01/30 13:38:44;;;;;;;;;;;8.50;99.90;;;;;;4943761;28;20206;-69
2023/01/30 13:41:11;;;;;;;;;;;8.40;99.90;;;;;;4927945;28;19961;-68
2023/01/30 13:43:46;;;;;;;;;;;8.30;99.90;;;;;;4950905;28;19932;-67
2023/01/30 13:46:16;;;;;;;;;;;8.30;99.90;;;;;;4951546;28;20222;-84
2023/01/30 13:48:57;;;;;;;;;;;8.30;99.90;;;;;;4955128;28;19918;-88
2023/01/30 13:51:41;;;;;;;;;;;8.30;99.90;;;;;;4938471;28;19910;-79
2023/01/30 13:54:25;;;;;;;;;;;8.20;99.90;;;;;;4951713;28;19922;-68
2023/01/30 13:57:02;;;;;;;;;;;8.20;99.90;;;;;;4953555;28;19956;-68
2023/01/30 13:59:46;;;;;;;;;;;8.30;99.90;;;;;;4974859;28;19913;-87
2023/01/30 14:02:16;;;;;;;;;;;8.20;99.90;;;;;;5009976;28;20266;-88
2023/01/30 14:04:41;;;;;;;;;;;8.20;99.90;;;;;;5009075;28;19924;-68
2023/01/30 14:07:07;;;;;;;;;;;8.20;99.90;;;;;;5014864;28;20004;-77
2023/01/30 14:09:33;;;;;;;;;;;8.20;99.90;;;;;;5016348;28;19964;-85
2023/01/30 14:12:00;;;;;;;;;;;8.10;99.90;;;;;;5014180;28;19954;-67
2023/01/30 14:14:28;;;;;;;;;;;8.10;99.90;;;;;;5059595;28;19916;-81
2023/01/30 14:16:55;;;;;;;;;;;8.10;99.90;;;;;;5072160;28;19962;-84
2023/01/30 14:19:38;;;;;;;;;;;8.10;99.90;;;;;;5067581;28;19947;-82
2023/01/30 14:22:23;;;;;;;;;;;8.10;99.90;;;;;;5064704;28;19908;-83
2023/01/30 14:25:07;;;;;;;;;;;8.10;99.90;;;;;;5071002;28;19908;-82
2023/01/30 14:27:33;;;;;;;;;;;8.10;99.90;;;;;;5065952;28;19916;-84
2023/01/30 14:29:58;;;;;;;;;;;8.10;99.90;;;;;;5055018;28;19916;-80
2023/01/30 14:32:42;;;;;;;;;;;8.00;99.90;;;;;;5068500;28;19909;-82
2023/01/30 14:35:08;;;;;;;;;;;8.00;99.90;;;;;;5073620;28;19936;-80
2023/01/30 14:37:33;;;;;;;;;;;8.10;99.90;;;;;;5062875;28;19944;-71
2023/01/30 14:39:59;;;;;;;;;;;8.00;99.90;;;;;;5074329;28;19908;-87
2023/01/30 14:42:29;;;;;;;;;;;8.00;99.90;;;;;;5069081;28;20188;-80
2023/01/30 14:45:03;;;;;;;;;;;8.00;99.90;;;;;;5049694;28;19975;-70
2023/01/30 14:47:29;;;;;;;;;;;8.00;99.90;;;;;;5066183;28;19909;-73
2023/01/30 14:49:56;;;;;;;;;;;8.00;99.90;;;;;;5065378;28;19923;-87
2023/01/30 14:52:27;;;;;;;;;;;8.00;99.90;;;;;;5065965;28;20102;-74
2023/01/30 14:54:54;;;;;;;;;;;8.00;99.90;;;;;;5062021;28;19908;-67
2023/01/30 14:57:26;;;;;;;;;;;8.00;99.90;;;;;;5068145;28;19950;-73